Time;durP1;ratioP1;P1;durP2;ratioP2;P2;SDS_P1;SDS_P2;PMS_P1;PMS_P2;Temp;Humidity;BMP_temperature;BMP_pressure;BME280_temperature;BME280_humidity;BME280_pressure;Samples;Min_cycle;Max_cycle;Signal;HPM_P1;HPM_P2
2022/03/02 00:00:57;;;;;;;4.72;1.90;;;24.80;71.60;;;;;;5034373;28;21001;-72
2022/03/02 00:03:24;;;;;;;5.90;2.20;;;24.80;71.70;;;;;;5043085;28;20087;-73
2022/03/02 00:05:50;;;;;;;5.53;1.73;;;24.80;71.80;;;;;;5035207;28;20021;-73
2022/03/02 00:08:17;;;;;;;6.22;1.92;;;24.80;71.90;;;;;;5033028;28;20435;-73
2022/03/02 00:10:44;;;;;;;5.38;2.30;;;24.80;72.00;;;;;;5030993;28;20068;-73
2022/03/02 00:13:10;;;;;;;4.93;2.08;;;24.80;71.90;;;;;;5034515;28;20105;-73
2022/03/02 00:15:37;;;;;;;8.23;3.72;;;24.70;71.80;;;;;;5040104;28;20018;-73
2022/03/02 00:18:04;;;;;;;5.75;3.30;;;24.80;71.90;;;;;;5034453;28;20495;-73
2022/03/02 00:20:30;;;;;;;5.60;2.35;;;24.70;71.80;;;;;;5033821;28;20063;-73
2022/03/02 00:22:56;;;;;;;4.30;1.98;;;24.70;71.80;;;;;;5040356;28;20403;-73
2022/03/02 00:25:23;;;;;;;7.40;2.60;;;24.70;72.00;;;;;;5036352;28;20068;-73
2022/03/02 00:27:49;;;;;;;4.88;1.63;;;24.70;72.10;;;;;;5037217;28;20374;-73
2022/03/02 00:30:16;;;;;;;5.20;2.25;;;24.70;72.10;;;;;;5032910;28;20443;-73
2022/03/02 00:32:43;;;;;;;4.65;1.67;;;24.70;72.10;;;;;;5035592;28;20025;-73
2022/03/02 00:35:09;;;;;;;4.22;2.53;;;24.70;72.20;;;;;;5036545;28;20021;-73
2022/03/02 00:37:36;;;;;;;6.65;2.42;;;24.80;72.20;;;;;;5037407;28;20104;-73
2022/03/02 00:40:03;;;;;;;4.15;1.80;;;24.70;72.20;;;;;;5033588;28;20064;-73
2022/03/02 00:42:30;;;;;;;3.65;1.63;;;24.70;72.90;;;;;;5034233;28;20427;-73
2022/03/02 00:44:57;;;;;;;2.60;1.48;;;24.70;72.20;;;;;;5031632;28;20112;-73
2022/03/02 00:47:24;;;;;;;5.45;2.42;;;24.70;72.20;;;;;;5035470;28;20503;-72
2022/03/02 00:49:51;;;;;;;7.38;2.63;;;24.70;72.20;;;;;;5035222;28;20049;-73
2022/03/02 00:52:18;;;;;;;5.18;2.33;;;24.80;72.30;;;;;;5032682;28;20033;-74
2022/03/02 00:54:44;;;;;;;11.57;1.90;;;24.80;72.20;;;;;;5034236;28;20032;-73
2022/03/02 00:57:11;;;;;;;5.38;1.70;;;24.80;72.30;;;;;;5033417;28;20028;-73
2022/03/02 00:59:37;;;;;;;13.48;1.80;;;24.70;72.20;;;;;;5035312;28;20028;-71
2022/03/02 01:02:04;;;;;;;11.63;3.30;;;24.80;72.40;;;;;;5034443;28;20044;-71
2022/03/02 01:04:30;;;;;;;11.95;2.97;;;24.80;72.40;;;;;;5032546;28;20017;-74
2022/03/02 01:06:57;;;;;;;8.75;1.52;;;24.70;72.30;;;;;;5033738;28;20027;-72
2022/03/02 01:09:24;;;;;;;21.77;2.50;;;24.70;72.10;;;;;;5037160;28;20037;-73
2022/03/02 01:11:50;;;;;;;10.30;1.77;;;24.70;72.10;;;;;;5033659;28;20063;-72
2022/03/02 01:14:17;;;;;;;9.35;2.72;;;24.70;72.20;;;;;;5035324;28;20025;-72
2022/03/02 01:16:43;;;;;;;5.30;1.85;;;24.70;72.60;;;;;;5039048;28;20375;-72
2022/03/02 01:19:10;;;;;;;2.25;1.58;;;24.70;71.90;;;;;;5039726;28;20035;-73
2022/03/02 01:21:36;;;;;;;4.85;1.58;;;24.70;71.80;;;;;;5040412;28;20337;-73
2022/03/02 01:24:03;;;;;;;4.03;1.60;;;24.70;71.80;;;;;;5041581;28;20502;-72
2022/03/02 01:26:30;;;;;;;7.43;1.70;;;24.60;71.80;;;;;;5039418;28;20021;-73
2022/03/02 01:28:56;;;;;;;8.35;1.92;;;24.70;72.00;;;;;;5037270;28;20034;-73
2022/03/02 01:31:24;;;;;;;6.47;1.73;;;24.60;72.30;;;;;;5040027;28;20025;-73
2022/03/02 01:33:51;;;;;;;11.05;2.72;;;24.60;72.40;;;;;;5041312;28;20025;-72
2022/03/02 01:36:19;;;;;;;4.85;3.05;;;24.70;72.50;;;;;;5039687;28;20021;-72
2022/03/02 01:38:46;;;;;;;4.90;2.22;;;24.60;72.50;;;;;;5035497;28;20140;-73
2022/03/02 01:41:18;;;;;;;3.95;1.63;;;24.60;72.50;;;;;;5038483;28;20461;-71
2022/03/02 01:43:45;;;;;;;5.07;1.80;;;24.60;72.40;;;;;;5040247;28;20033;-72
2022/03/02 01:46:13;;;;;;;4.95;1.77;;;24.60;72.50;;;;;;5040886;28;20029;-72
2022/03/02 01:48:40;;;;;;;8.20;1.98;;;24.70;72.70;;;;;;5039875;28;20033;-73
2022/03/02 01:51:06;;;;;;;7.43;1.90;;;24.60;72.80;;;;;;5035168;28;20090;-73
2022/03/02 01:53:33;;;;;;;6.07;2.22;;;24.60;72.90;;;;;;5038897;28;20120;-72
2022/03/02 01:56:01;;;;;;;1.77;1.40;;;24.60;73.00;;;;;;5037428;28;20108;-73
2022/03/02 01:58:29;;;;;;;9.68;1.90;;;24.70;73.20;;;;;;5037534;28;20038;-73
2022/03/02 02:00:57;;;;;;;3.15;1.60;;;24.70;73.10;;;;;;5036938;28;20037;-73
2022/03/02 02:03:24;;;;;;;3.53;1.67;;;24.70;73.20;;;;;;5035559;28;20029;-74
2022/03/02 02:05:50;;;;;;;10.23;2.80;;;24.60;73.20;;;;;;5042098;28;20021;-73
2022/03/02 02:08:17;;;;;;;5.72;1.80;;;24.70;73.30;;;;;;5038611;28;20024;-73
2022/03/02 02:10:43;;;;;;;7.32;2.10;;;24.70;73.40;;;;;;5039501;28;20028;-73
2022/03/02 02:13:10;;;;;;;7.30;1.75;;;24.70;73.40;;;;;;5033648;28;20032;-72
2022/03/02 02:15:37;;;;;;;4.22;1.77;;;24.70;73.30;;;;;;5040060;28;20375;-73
2022/03/02 02:18:04;;;;;;;5.03;2.70;;;24.60;73.40;;;;;;5034429;28;20101;-74
2022/03/02 02:20:38;;;;;;;6.25;2.22;;;24.70;73.50;;;;;;5036521;28;20025;-73
2022/03/02 02:23:05;;;;;;;4.37;1.63;;;24.60;73.60;;;;;;5034554;28;20411;-73
2022/03/02 02:25:32;;;;;;;7.47;2.42;;;24.70;73.80;;;;;;5035097;28;20036;-73
2022/03/02 02:27:59;;;;;;;4.82;1.80;;;24.70;73.90;;;;;;5037739;28;20014;-73
2022/03/02 02:30:26;;;;;;;4.95;2.00;;;24.60;73.80;;;;;;5033924;28;20144;-73
2022/03/02 02:32:53;;;;;;;6.13;1.98;;;24.70;73.90;;;;;;5035533;28;20043;-73
2022/03/02 02:35:20;;;;;;;7.50;1.77;;;24.70;74.00;;;;;;5040425;28;20025;-73
2022/03/02 02:37:46;;;;;;;4.63;1.70;;;24.70;74.10;;;;;;5035042;28;20064;-73
2022/03/02 02:40:19;;;;;;;8.27;2.63;;;24.70;74.20;;;;;;5033927;28;20014;-73
2022/03/02 02:42:47;;;;;;;4.72;1.88;;;24.70;74.30;;;;;;5039473;28;20016;-73
2022/03/02 02:45:17;;;;;;;3.85;1.55;;;24.70;74.40;;;;;;5039781;28;20014;-75
2022/03/02 02:47:45;;;;;;;7.50;2.20;;;24.70;74.30;;;;;;5034509;28;20051;-73
2022/03/02 02:50:17;;;;;;;5.60;2.33;;;24.70;74.30;;;;;;5034530;28;20048;-73
2022/03/02 02:52:43;;;;;;;9.98;2.90;;;24.70;74.30;;;;;;5035477;28;20098;-73
2022/03/02 02:55:12;;;;;;;8.52;2.17;;;24.70;74.40;;;;;;5037984;28;20021;-73
2022/03/02 02:57:39;;;;;;;11.32;2.83;;;24.70;74.40;;;;;;5036526;28;20021;-74
2022/03/02 03:00:09;;;;;;;6.80;1.80;;;24.70;74.60;;;;;;5035842;28;20021;-72
2022/03/02 03:02:37;;;;;;;8.38;3.08;;;24.70;74.70;;;;;;5042430;28;20017;-73
2022/03/02 03:05:03;;;;;;;3.78;2.00;;;24.70;74.70;;;;;;5036247;28;20902;-73
2022/03/02 03:07:30;;;;;;;4.88;2.33;;;24.70;74.80;;;;;;5036352;28;20040;-74
2022/03/02 03:09:56;;;;;;;5.50;2.20;;;24.70;74.60;;;;;;5034179;28;20483;-73
2022/03/02 03:12:23;;;;;;;9.00;1.83;;;24.60;74.30;;;;;;5044691;28;20032;-74
2022/03/02 03:14:49;;;;;;;5.75;1.80;;;24.60;74.10;;;;;;5032259;28;20108;-73
2022/03/02 03:17:16;;;;;;;7.63;1.60;;;24.60;74.10;;;;;;5036149;28;20065;-74
2022/03/02 03:19:42;;;;;;;8.00;2.10;;;24.60;74.00;;;;;;5041626;28;20067;-73
2022/03/02 03:22:09;;;;;;;9.93;2.50;;;24.60;73.90;;;;;;5038977;28;20029;-74
2022/03/02 03:24:36;;;;;;;6.47;2.45;;;24.60;73.80;;;;;;5040126;28;20052;-74
2022/03/02 03:27:02;;;;;;;4.68;1.52;;;24.60;73.70;;;;;;5034479;28;20328;-72
2022/03/02 03:29:29;;;;;;;6.03;1.95;;;24.60;73.60;;;;;;5036901;28;20529;-73
2022/03/02 03:32:35;;;;;;;7.38;2.30;;;24.60;73.50;;;;;;5036556;28;20031;-73
2022/03/02 03:35:01;;;;;;;;;;;24.60;73.30;;;;;;5039188;28;20034;-73
2022/03/02 03:37:28;;;;;;;25.10;3.05;;;24.60;73.30;;;;;;5034616;28;19916;-73
2022/03/02 03:39:55;;;;;;;8.98;2.40;;;24.50;73.10;;;;;;5035938;28;20029;-73
2022/03/02 03:42:23;;;;;;;11.10;2.20;;;24.50;73.80;;;;;;5036628;28;20021;-73
2022/03/02 03:44:50;;;;;;;8.20;1.52;;;24.50;73.20;;;;;;5037448;28;20407;-74
2022/03/02 03:47:16;;;;;;;6.88;2.33;;;24.60;73.40;;;;;;5036284;28;20029;-73
2022/03/02 03:49:43;;;;;;;9.75;2.67;;;24.50;73.60;;;;;;5038704;28;20049;-73
2022/03/02 03:52:09;;;;;;;6.80;2.50;;;24.60;73.60;;;;;;5037420;28;20025;-74
2022/03/02 03:54:36;;;;;;;12.02;3.35;;;24.50;73.50;;;;;;5039400;28;20079;-72
2022/03/02 03:57:04;;;;;;;6.13;1.98;;;24.50;73.40;;;;;;5039120;28;20052;-73
2022/03/02 03:59:31;;;;;;;6.75;1.92;;;24.50;73.50;;;;;;5037865;28;20032;-73
2022/03/02 04:01:58;;;;;;;4.57;1.98;;;24.50;73.70;;;;;;5032290;28;20079;-73
2022/03/02 04:04:25;;;;;;;6.72;2.60;;;24.50;73.70;;;;;;5032691;28;20029;-77
2022/03/02 04:06:52;;;;;;;7.70;1.70;;;24.50;73.70;;;;;;5040019;28;20079;-70
2022/03/02 04:09:19;;;;;;;11.30;2.25;;;24.50;73.60;;;;;;5037262;28;20068;-70
2022/03/02 04:11:45;;;;;;;14.57;3.05;;;24.50;75.00;;;;;;5036338;28;20400;-70
2022/03/02 04:14:12;;;;;;;69.15;50.08;;;24.50;75.00;;;;;;5035789;28;20044;-72
2022/03/02 04:16:39;;;;;;;65.22;56.75;;;24.50;75.00;;;;;;5038853;28;20464;-72
2022/03/02 04:19:05;;;;;;;51.67;40.67;;;24.40;75.00;;;;;;5036043;28;20029;-71
2022/03/02 04:21:33;;;;;;;38.75;25.77;;;24.40;74.70;;;;;;5041624;28;20487;-72
2022/03/02 04:24:00;;;;;;;24.15;14.05;;;24.40;74.50;;;;;;5034251;28;20017;-72
2022/03/02 04:26:26;;;;;;;15.52;8.40;;;24.40;74.20;;;;;;5035736;28;20017;-73
2022/03/02 04:28:54;;;;;;;12.45;5.22;;;24.40;74.20;;;;;;5040007;28;20025;-73
2022/03/02 04:31:20;;;;;;;9.45;3.85;;;24.40;74.40;;;;;;5034214;28;20017;-71
2022/03/02 04:34:26;;;;;;;7.03;2.92;;;24.40;74.50;;;;;;5041134;28;20025;-70
2022/03/02 04:37:12;;;;;;;;;;;24.40;74.70;;;;;;5035728;28;20568;-73
2022/03/02 04:39:38;;;;;;;6.18;2.10;;;24.40;75.00;;;;;;5035930;28;19937;-72
2022/03/02 04:42:05;;;;;;;5.07;1.88;;;24.40;75.20;;;;;;5037918;28;20056;-70
2022/03/02 04:44:32;;;;;;;13.48;8.07;;;24.40;75.40;;;;;;5031441;28;20020;-72
2022/03/02 04:46:58;;;;;;;16.35;9.80;;;24.40;75.50;;;;;;5039012;28;20036;-69
2022/03/02 04:49:25;;;;;;;11.82;6.78;;;24.40;75.60;;;;;;5036171;28;20519;-69
2022/03/02 04:51:51;;;;;;;9.15;4.00;;;24.40;75.60;;;;;;5037961;28;20017;-70
2022/03/02 04:57:04;;;;;;;9.82;2.88;;;24.40;75.80;;;;;;5035342;28;20106;-70
2022/03/02 04:59:31;;;;;;;10.63;2.45;;;24.30;75.80;;;;;;5038031;28;20506;-70
2022/03/02 05:01:59;;;;;;;14.15;2.88;;;24.40;75.90;;;;;;5033496;28;20026;-70
2022/03/02 05:04:26;;;;;;;18.30;4.15;;;24.40;75.80;;;;;;5037157;28;20423;-71
2022/03/02 05:06:53;;;;;;;7.40;1.60;;;24.30;75.90;;;;;;5037181;28;20018;-70
2022/03/02 05:09:20;;;;;;;5.53;2.67;;;24.40;76.00;;;;;;5040026;28;20454;-70
2022/03/02 05:11:46;;;;;;;5.20;1.67;;;24.30;75.90;;;;;;5037055;28;20025;-72
2022/03/02 05:14:12;;;;;;;7.57;2.70;;;24.40;75.90;;;;;;5032239;28;20531;-71
2022/03/02 05:16:39;;;;;;;8.57;2.60;;;24.40;75.80;;;;;;5038219;28;20473;-71
2022/03/02 05:19:06;;;;;;;9.70;2.13;;;24.30;75.70;;;;;;5038380;28;20925;-71
2022/03/02 05:21:32;;;;;;;5.68;2.88;;;24.40;75.70;;;;;;5036235;28;20455;-72
2022/03/02 05:23:59;;;;;;;6.25;1.90;;;24.40;75.80;;;;;;5042276;28;20485;-71
2022/03/02 05:26:26;;;;;;;8.90;3.38;;;24.40;75.80;;;;;;5038169;28;20152;-71
2022/03/02 05:28:52;;;;;;;5.00;2.05;;;24.40;75.70;;;;;;5032869;28;20029;-71
2022/03/02 05:31:20;;;;;;;4.90;2.08;;;24.40;75.80;;;;;;5035001;28;20076;-71
2022/03/02 05:33:46;;;;;;;9.68;4.28;;;24.40;75.80;;;;;;5040323;28;20456;-71
2022/03/02 05:36:13;;;;;;;10.18;1.98;;;24.40;75.80;;;;;;5035378;28;20045;-71
2022/03/02 05:38:39;;;;;;;4.60;2.58;;;24.50;75.90;;;;;;5039270;28;20079;-71
2022/03/02 05:41:06;;;;;;;4.95;1.77;;;24.40;76.60;;;;;;5034268;28;20109;-72
2022/03/02 05:43:32;;;;;;;8.40;2.13;;;24.40;75.90;;;;;;5037841;28;20064;-71
2022/03/02 05:45:59;;;;;;;3.88;1.70;;;24.50;75.70;;;;;;5034139;28;20067;-71
2022/03/02 05:48:25;;;;;;;12.85;2.63;;;24.50;76.20;;;;;;5037196;28;20041;-71
2022/03/02 05:50:52;;;;;;;5.68;1.92;;;24.50;75.30;;;;;;5037995;28;20083;-72
2022/03/02 05:53:18;;;;;;;6.53;2.15;;;24.50;75.20;;;;;;5034451;28;20018;-71
2022/03/02 05:55:45;;;;;;;5.78;1.98;;;24.50;75.20;;;;;;5034516;28;20054;-71
2022/03/02 05:58:11;;;;;;;9.77;2.47;;;24.40;75.20;;;;;;5038169;28;20043;-70
2022/03/02 06:00:37;;;;;;;5.78;2.20;;;24.50;75.30;;;;;;5039729;28;20456;-70
2022/03/02 06:03:04;;;;;;;8.30;2.00;;;24.50;75.30;;;;;;5040040;28;20404;-71
2022/03/02 06:05:30;;;;;;;6.50;1.77;;;24.50;75.30;;;;;;5037539;28;20056;-71
2022/03/02 06:07:57;;;;;;;9.55;3.53;;;24.50;75.50;;;;;;5040601;28;20019;-71
2022/03/02 06:10:24;;;;;;;2.50;1.33;;;24.50;75.60;;;;;;5041520;28;20029;-71
2022/03/02 06:12:51;;;;;;;5.80;1.83;;;24.50;75.80;;;;;;5033742;28;20684;-71
2022/03/02 06:15:18;;;;;;;3.65;1.27;;;24.50;75.90;;;;;;5039592;28;20032;-71
2022/03/02 06:17:45;;;;;;;3.83;1.45;;;24.50;76.10;;;;;;5038701;28;20021;-71
2022/03/02 06:20:12;;;;;;;4.43;2.08;;;24.50;76.40;;;;;;5032579;28;20029;-70
2022/03/02 06:22:39;;;;;;;3.28;1.38;;;24.40;76.40;;;;;;5039055;28;20026;-69
2022/03/02 06:25:09;;;;;;;8.25;1.80;;;24.50;76.70;;;;;;5044842;28;20017;-70
2022/03/02 06:27:38;;;;;;;3.20;1.40;;;24.50;76.90;;;;;;5037127;28;20020;-69
2022/03/02 06:30:07;;;;;;;8.18;1.42;;;24.50;77.20;;;;;;5036989;28;20055;-70
2022/03/02 06:32:34;;;;;;;5.43;1.40;;;24.50;77.20;;;;;;5035692;28;20109;-69
2022/03/02 06:35:01;;;;;;;6.22;1.73;;;24.50;77.20;;;;;;5040069;28;20044;-69
2022/03/02 06:37:33;;;;;;;14.15;2.53;;;24.50;77.20;;;;;;5038340;28;20021;-69
2022/03/02 06:40:01;;;;;;;5.53;1.98;;;24.50;77.20;;;;;;5040607;28;20040;-70
2022/03/02 06:42:33;;;;;;;3.55;1.73;;;24.50;77.60;;;;;;5037206;28;20018;-70
2022/03/02 06:45:12;;;;;;;4.53;1.85;;;24.50;77.90;;;;;;5035912;28;20125;-69
2022/03/02 06:47:46;;;;;;;4.43;1.60;;;24.50;78.20;;;;;;5035361;28;20473;-69
2022/03/02 06:50:16;;;;;;;8.77;1.60;;;24.50;78.20;;;;;;5031445;28;20042;-70
2022/03/02 06:52:45;;;;;;;17.15;3.67;;;24.50;78.00;;;;;;5031966;28;20028;-70
2022/03/02 06:55:14;;;;;;;7.93;2.08;;;24.60;77.80;;;;;;5038844;28;20530;-70
2022/03/02 06:57:40;;;;;;;4.90;1.80;;;24.60;77.70;;;;;;5036128;28;20013;-70
2022/03/02 07:00:09;;;;;;;5.88;2.45;;;24.50;77.40;;;;;;5036668;28;20468;-70
2022/03/02 07:02:44;;;;;;;4.63;2.03;;;24.60;77.20;;;;;;5039816;28;20025;-70
2022/03/02 07:05:11;;;;;;;23.20;3.40;;;24.60;77.00;;;;;;5041431;28;20178;-70
2022/03/02 07:07:38;;;;;;;17.02;2.72;;;24.60;76.80;;;;;;5037335;28;20092;-70
2022/03/02 07:10:07;;;;;;;7.97;2.25;;;24.60;76.80;;;;;;5039559;28;20029;-71
2022/03/02 07:12:36;;;;;;;8.95;2.63;;;24.60;76.70;;;;;;5038348;28;20039;-70
2022/03/02 07:15:04;;;;;;;9.63;3.78;;;24.60;76.70;;;;;;5032572;28;20109;-70
2022/03/02 07:17:32;;;;;;;4.57;2.50;;;24.60;76.50;;;;;;5038829;28;20113;-70
2022/03/02 07:20:00;;;;;;;4.57;2.65;;;24.70;76.30;;;;;;5034216;28;20033;-70
2022/03/02 07:22:50;;;;;;;5.55;2.55;;;24.70;76.10;;;;;;5035818;28;20022;-71
2022/03/02 07:25:21;;;;;;;5.22;2.42;;;24.70;76.00;;;;;;5036888;28;20062;-70
2022/03/02 07:27:49;;;;;;;10.05;2.90;;;24.80;75.90;;;;;;5037026;28;20452;-71
2022/03/02 07:30:16;;;;;;;11.15;3.05;;;24.80;76.00;;;;;;5037047;28;20029;-71
2022/03/02 07:32:48;;;;;;;5.88;2.60;;;24.80;76.20;;;;;;5036138;28;20044;-70
2022/03/02 07:35:17;;;;;;;8.30;2.63;;;24.90;76.20;;;;;;5037358;28;20021;-70
2022/03/02 07:37:46;;;;;;;7.28;2.30;;;24.90;76.30;;;;;;5037941;28;20021;-70
2022/03/02 07:40:14;;;;;;;5.93;2.03;;;24.90;76.00;;;;;;5033883;28;20018;-71
2022/03/02 07:42:41;;;;;;;5.82;3.33;;;24.90;75.80;;;;;;5032156;28;20033;-72
2022/03/02 07:45:09;;;;;;;6.18;2.85;;;25.00;75.70;;;;;;5038049;28;20020;-71
2022/03/02 07:47:36;;;;;;;7.03;2.40;;;25.00;75.70;;;;;;5040325;28;20108;-71
2022/03/02 07:50:04;;;;;;;7.65;2.53;;;25.10;75.80;;;;;;5034916;28;20044;-71
2022/03/02 07:52:31;;;;;;;8.23;2.80;;;25.10;75.60;;;;;;5034465;28;20030;-71
2022/03/02 07:55:07;;;;;;;10.80;2.85;;;25.20;75.60;;;;;;5035769;28;20026;-71
2022/03/02 07:57:34;;;;;;;6.10;2.67;;;25.20;75.40;;;;;;5038319;28;20036;-72
2022/03/02 08:00:03;;;;;;;12.25;3.55;;;25.20;75.30;;;;;;5037475;28;20045;-71
2022/03/02 08:02:32;;;;;;;11.68;3.03;;;25.30;75.30;;;;;;5036445;28;20025;-71
2022/03/02 08:05:01;;;;;;;13.52;2.78;;;25.30;75.10;;;;;;5037354;28;20560;-71
2022/03/02 08:07:27;;;;;;;8.70;2.95;;;25.30;75.20;;;;;;5034103;28;20021;-71
2022/03/02 08:09:54;;;;;;;7.25;2.40;;;25.30;75.20;;;;;;5037370;28;20025;-70
2022/03/02 08:12:23;;;;;;;18.77;3.10;;;25.40;75.10;;;;;;5040638;28;20025;-71
2022/03/02 08:14:50;;;;;;;15.32;3.10;;;25.40;75.10;;;;;;5039961;28;20017;-70
2022/03/02 08:17:18;;;;;;;16.70;2.55;;;25.40;74.80;;;;;;5032568;28;20381;-71
2022/03/02 08:19:48;;;;;;;14.98;3.17;;;25.50;74.70;;;;;;5036832;28;20021;-71
2022/03/02 08:22:20;;;;;;;20.23;3.85;;;25.50;74.60;;;;;;5039437;28;20071;-70
2022/03/02 08:25:17;;;;;;;17.58;3.58;;;25.60;74.50;;;;;;5033704;28;20029;-71
2022/03/02 08:27:44;;;;;;;15.30;3.60;;;25.60;74.40;;;;;;5027652;28;20063;-71
2022/03/02 08:30:12;;;;;;;14.20;3.42;;;25.60;74.10;;;;;;5032975;28;20025;-70
2022/03/02 08:32:47;;;;;;;13.77;2.65;;;25.60;73.80;;;;;;5036195;28;20029;-72
2022/03/02 08:35:14;;;;;;;16.35;4.00;;;25.70;73.30;;;;;;5033675;28;20112;-71
2022/03/02 08:37:42;;;;;;;18.02;3.40;;;25.70;72.90;;;;;;5036938;28;20491;-71
2022/03/02 08:40:10;;;;;;;18.55;3.92;;;25.70;72.90;;;;;;5040509;28;20359;-71
2022/03/02 08:42:37;;;;;;;13.25;2.53;;;25.70;73.00;;;;;;5031426;28;20103;-71
2022/03/02 08:45:04;;;;;;;6.53;2.40;;;25.70;73.00;;;;;;5036300;28;20029;-72
2022/03/02 08:47:34;;;;;;;8.32;2.35;;;25.70;72.70;;;;;;5036493;28;20380;-71
2022/03/02 08:50:00;;;;;;;11.13;2.67;;;25.70;72.60;;;;;;5035825;28;20511;-72
2022/03/02 08:52:31;;;;;;;10.52;2.28;;;25.70;72.70;;;;;;5036781;28;20036;-71
2022/03/02 08:55:04;;;;;;;10.05;2.47;;;25.70;72.70;;;;;;5032666;28;20721;-71
2022/03/02 08:57:34;;;;;;;9.25;3.10;;;25.70;72.40;;;;;;5036770;28;20021;-71
2022/03/02 09:00:03;;;;;;;11.50;2.78;;;25.70;72.40;;;;;;5036632;28;20053;-71
2022/03/02 09:02:30;;;;;;;8.18;2.45;;;25.80;72.50;;;;;;5035204;28;20083;-71
2022/03/02 09:05:00;;;;;;;9.48;3.13;;;25.80;72.50;;;;;;5038813;28;20057;-71
2022/03/02 09:07:26;;;;;;;13.82;3.45;;;25.80;72.70;;;;;;5036783;28;20029;-70
2022/03/02 09:09:53;;;;;;;12.63;3.65;;;25.80;72.80;;;;;;5033362;28;20063;-71
2022/03/02 09:12:20;;;;;;;8.90;3.20;;;25.80;72.90;;;;;;5033853;28;20021;-71
2022/03/02 09:14:49;;;;;;;10.95;2.92;;;25.80;72.90;;;;;;5037342;28;20427;-71
2022/03/02 09:17:30;;;;;;;9.30;3.05;;;25.80;72.70;;;;;;5034861;28;20419;-71
2022/03/02 09:19:57;;;;;;;8.00;3.22;;;25.90;72.60;;;;;;5033837;28;20092;-71
2022/03/02 09:22:26;;;;;;;12.65;3.35;;;26.00;72.20;;;;;;5033910;28;20017;-71
2022/03/02 09:24:53;;;;;;;14.73;3.53;;;26.00;71.10;;;;;;5031172;28;20025;-71
2022/03/02 09:27:27;;;;;;;23.65;5.22;;;26.00;70.90;;;;;;5041606;28;20021;-70
2022/03/02 09:29:57;;;;;;;15.45;3.92;;;26.00;71.40;;;;;;5033439;28;20404;-70
2022/03/02 09:32:25;;;;;;;10.02;3.15;;;26.00;72.10;;;;;;5035500;28;20472;-70
2022/03/02 09:34:55;;;;;;;9.38;3.30;;;26.10;72.50;;;;;;5038184;28;20108;-71
2022/03/02 09:37:25;;;;;;;11.80;3.42;;;26.10;72.60;;;;;;5036359;28;20022;-70
2022/03/02 09:39:52;;;;;;;14.57;4.60;;;26.10;72.60;;;;;;5035748;28;20116;-71
2022/03/02 09:42:32;;;;;;;11.93;4.03;;;26.20;72.60;;;;;;5040882;28;20013;-70
2022/03/02 09:45:05;;;;;;;15.50;4.22;;;26.20;72.50;;;;;;5041634;28;20498;-70
2022/03/02 09:47:50;;;;;;;13.57;5.00;;;26.20;72.60;;;;;;5045466;28;20054;-70
2022/03/02 09:50:17;;;;;;;;;;;26.20;72.70;;;;;;5037620;28;20626;-70
2022/03/02 09:52:46;;;;;;;9.30;4.03;;;26.30;72.70;;;;;;5039326;28;20319;-71
2022/03/02 09:55:22;;;;;;;7.53;2.75;;;26.40;72.50;;;;;;5039138;28;20024;-71
2022/03/02 09:57:54;;;;;;;11.57;3.35;;;26.40;72.10;;;;;;5038525;28;20025;-71
2022/03/02 10:00:23;;;;;;;7.03;3.22;;;26.40;71.80;;;;;;5042164;28;20029;-71
2022/03/02 10:02:55;;;;;;;16.50;4.05;;;26.40;72.30;;;;;;5038650;28;20567;-71
2022/03/02 10:05:28;;;;;;;13.35;2.90;;;26.40;71.40;;;;;;5041238;28;20025;-71
2022/03/02 10:08:13;;;;;;;14.63;3.90;;;26.50;71.60;;;;;;5037403;28;20029;-71
2022/03/02 10:10:41;;;;;;;10.30;4.85;;;26.50;71.60;;;;;;5040685;28;20128;-70
2022/03/02 10:13:10;;;;;;;17.58;4.10;;;26.60;71.40;;;;;;5039238;28;20017;-71
2022/03/02 10:15:38;;;;;;;10.73;3.15;;;26.70;71.10;;;;;;5040939;28;20037;-71
2022/03/02 10:18:08;;;;;;;16.33;3.83;;;26.60;71.10;;;;;;5034802;28;20018;-71
2022/03/02 10:20:36;;;;;;;8.27;2.63;;;26.70;70.60;;;;;;5038003;28;20021;-71
2022/03/02 10:23:14;;;;;;;6.57;3.15;;;26.80;70.30;;;;;;5043160;28;20383;-71
2022/03/02 10:25:59;;;;;;;10.40;2.65;;;26.80;69.90;;;;;;5037939;28;20121;-71
2022/03/02 10:28:46;;;;;;;10.07;3.40;;;26.80;69.40;;;;;;5034234;28;21495;-71
2022/03/02 10:31:27;;;;;;;9.70;4.22;;;26.90;69.20;;;;;;5039322;28;20044;-71
2022/03/02 10:34:21;;;;;;;14.45;3.00;;;26.90;68.70;;;;;;5039570;28;20037;-71
2022/03/02 10:36:53;;;;;;;7.80;3.20;;;27.00;68.60;;;;;;5032489;28;20041;-71
2022/03/02 10:39:50;;;;;;;12.63;3.80;;;27.00;67.70;;;;;;5037701;28;20052;-71
2022/03/02 10:42:32;;;;;;;8.32;3.17;;;27.10;66.60;;;;;;5040660;28;20030;-72
2022/03/02 10:45:07;;;;;;;10.82;2.60;;;27.10;66.70;;;;;;5034382;28;20040;-71
2022/03/02 10:47:34;;;;;;;;;;;27.20;66.20;;;;;;5037694;28;20021;-71
2022/03/02 10:50:03;;;;;;;13.60;4.43;;;27.20;65.20;;;;;;5036136;28;19928;-71
2022/03/02 10:52:32;;;;;;;10.40;3.35;;;27.30;65.50;;;;;;5035574;28;20452;-71
2022/03/02 10:55:06;;;;;;;8.57;2.80;;;27.30;65.50;;;;;;5031969;28;20075;-71
2022/03/02 10:57:34;;;;;;;10.77;4.55;;;27.40;65.70;;;;;;5042855;28;20021;-71
2022/03/02 11:00:21;;;;;;;8.73;2.97;;;27.40;65.90;;;;;;5037178;28;20043;-71
2022/03/02 11:03:00;;;;;;;15.02;3.97;;;27.40;66.10;;;;;;5036413;28;20070;-71
2022/03/02 11:05:29;;;;;;;9.45;3.08;;;27.40;65.80;;;;;;5035065;28;20116;-72
2022/03/02 11:07:56;;;;;;;6.50;2.40;;;27.50;65.80;;;;;;5036187;28;20017;-71
2022/03/02 11:10:32;;;;;;;6.72;2.65;;;27.50;65.50;;;;;;5036401;28;20033;-71
2022/03/02 11:13:02;;;;;;;10.20;2.47;;;27.50;65.00;;;;;;5037683;28;20025;-71
2022/03/02 11:15:46;;;;;;;5.50;2.78;;;27.60;65.10;;;;;;5039716;28;20060;-71
2022/03/02 11:18:17;;;;;;;8.10;3.33;;;27.60;65.10;;;;;;5038307;28;20017;-71
2022/03/02 11:21:05;;;;;;;10.95;3.60;;;27.70;65.00;;;;;;5038224;28;20025;-71
2022/03/02 11:23:54;;;;;;;10.82;2.92;;;27.70;65.00;;;;;;5035962;28;20031;-71
2022/03/02 11:26:26;;;;;;;9.70;2.55;;;27.70;64.80;;;;;;5035850;28;20045;-72
2022/03/02 11:28:58;;;;;;;6.47;2.40;;;27.70;64.60;;;;;;5034690;28;20485;-71
2022/03/02 11:31:39;;;;;;;5.68;2.10;;;27.70;64.50;;;;;;5041470;28;20045;-71
2022/03/02 11:34:15;;;;;;;6.10;2.45;;;27.80;64.70;;;;;;5038520;28;20017;-71
2022/03/02 11:36:45;;;;;;;6.30;2.75;;;27.80;64.60;;;;;;5039434;28;20031;-71
2022/03/02 11:39:14;;;;;;;8.60;2.75;;;27.80;64.80;;;;;;5037430;28;20018;-71
2022/03/02 11:41:44;;;;;;;9.82;2.35;;;27.80;64.80;;;;;;5038980;28;20013;-71
2022/03/02 11:44:37;;;;;;;12.48;4.47;;;27.80;65.00;;;;;;5037105;28;20518;-71
2022/03/02 11:47:10;;;;;;;7.70;2.83;;;27.80;64.60;;;;;;5032720;28;20533;-71
2022/03/02 11:49:46;;;;;;;6.05;2.33;;;27.90;65.10;;;;;;5037531;28;20052;-71
2022/03/02 11:52:18;;;;;;;5.30;1.98;;;27.90;63.80;;;;;;5034778;28;20056;-70
2022/03/02 11:54:50;;;;;;;8.13;2.28;;;28.00;63.60;;;;;;5036693;28;20024;-71
2022/03/02 11:57:20;;;;;;;9.80;3.13;;;28.10;63.80;;;;;;5034376;28;20354;-71
2022/03/02 11:59:47;;;;;;;8.68;2.85;;;28.20;64.00;;;;;;5036644;28;20117;-72
2022/03/02 12:02:22;;;;;;;5.80;2.30;;;28.20;63.70;;;;;;5039537;28;20029;-71
2022/03/02 12:05:09;;;;;;;8.90;2.90;;;28.20;62.20;;;;;;5029944;28;20037;-71
2022/03/02 12:07:43;;;;;;;35.90;4.75;;;28.30;60.90;;;;;;5031686;28;20025;-72
2022/03/02 12:10:23;;;;;;;20.67;3.78;;;28.30;61.20;;;;;;5038407;28;20491;-71
2022/03/02 12:12:51;;;;;;;24.90;4.18;;;28.40;62.00;;;;;;5039177;28;20036;-71
2022/03/02 12:15:19;;;;;;;9.27;3.38;;;28.40;63.00;;;;;;5035421;28;20100;-71
2022/03/02 12:17:46;;;;;;;9.90;3.53;;;28.40;63.00;;;;;;5033851;28;20029;-72
2022/03/02 12:20:18;;;;;;;8.93;3.65;;;28.50;63.00;;;;;;5037320;28;20049;-71
2022/03/02 12:22:50;;;;;;;8.70;2.55;;;28.50;62.50;;;;;;5033078;28;20092;-72
2022/03/02 12:25:20;;;;;;;12.75;2.85;;;28.50;62.10;;;;;;5034247;28;20013;-71
2022/03/02 12:27:59;;;;;;;14.85;2.47;;;28.50;61.90;;;;;;5038630;28;20021;-72
2022/03/02 12:30:28;;;;;;;7.45;3.25;;;28.60;62.60;;;;;;5038349;28;20061;-71
2022/03/02 12:32:55;;;;;;;10.43;2.53;;;28.60;62.50;;;;;;5036218;28;20096;-71
2022/03/02 12:35:23;;;;;;;15.75;3.70;;;28.70;62.40;;;;;;5036882;28;20021;-71
2022/03/02 12:37:52;;;;;;;9.60;3.00;;;28.70;62.40;;;;;;5031291;28;20029;-71
2022/03/02 12:40:19;;;;;;;14.18;4.07;;;28.70;62.80;;;;;;5037312;28;20480;-72
2022/03/02 12:42:47;;;;;;;23.42;4.15;;;28.70;62.80;;;;;;5038150;28;20024;-71
2022/03/02 12:45:15;;;;;;;13.23;3.00;;;28.70;62.70;;;;;;5033292;28;20028;-71
2022/03/02 12:47:42;;;;;;;8.68;3.00;;;28.70;62.90;;;;;;5030767;28;20495;-72
2022/03/02 12:50:11;;;;;;;10.18;2.60;;;28.60;62.90;;;;;;5037300;28;20045;-71
2022/03/02 12:52:40;;;;;;;8.05;2.92;;;28.50;63.00;;;;;;5032696;28;20095;-71
2022/03/02 12:55:08;;;;;;;8.77;3.08;;;28.60;63.60;;;;;;5035404;28;20469;-71
2022/03/02 12:57:36;;;;;;;7.85;2.45;;;28.50;64.20;;;;;;5036561;28;20533;-72
2022/03/02 13:00:08;;;;;;;10.85;4.15;;;28.60;64.50;;;;;;5033439;28;20021;-71